Main page
METAR-TAF:

METAR-TAF

Airports :

Málaga, Spain

Málaga Airport

latitude: 36-40N, longitude: 004-29W, elevation: 16 m

Current weather observation

The report was made 31 minutes ago, at 01:30 UTC
Wind 1 kt from variable directions
Temperature 19°C
Humidity 83%
Pressure 1016 hPa
Visibility 10 km or more
Scattered clouds at a height of 6500 ft

METAR: LEMG 290130Z VRB01KT 9999 SCT065 19/16 Q1016 NOSIG

Time: 04:01 (02:01 UTC)

Forecast

The report was made 3 hours and 1 minutes ago, at 23:00 UTC
Forecast valid from 29 at 00 UTC to 29 at 24 UTC
Wind 2 kt from variable directions
Visibility 10 km or more
Few clouds at a height of 4500 ft
Becoming
from 29 at 01 UTC to 29 at 05 UTC
Wind 9 kt from the West

TAF: LEMG 282300Z 2900/2924 VRB02KT 9999 FEW045 TX28/2915Z TN17/2905Z BECMG 2901/2905 28009KT

Weather observations and forecasts of more than 4000 airports (METAR and TAF reports).

The available stations are represented by yellow and red dots on the map.

Hover mouse over dot to see the name of the station.

Then click to see weather observations and forecasts.

To change the map : click on the green buttons with a black cross to zoom in, on the green button with a dash to zoom out, or on the green arrows for adjacent maps.


METAR-TAF: